CheckWX is a tool to help pilots better visualize weather data.  It is not intended as a substitute for an official pre-flight weather briefing.

15:37:40 UTC

HESN METAR
Aswan International Airport
Aswan, Egypt
Current

2 hours ago

HESN 201400Z 20004KT CAVOK 40/M04 Q1008 NOSIG
Observed
May-20 @ 14:00 UTC
Wind
  • 200° at 4 KTS
Visibility
10,000+ meters
Flight Rules
VFR
Cloud Levels
  • Clear skies
Temperature
40°C / 104°F
Dewpoint
-4°C / 25°F
Humidity
6%
Altimeter
29.76" Hg
Pressure
1007.92 hPa
Previous

3 hours ago

HESN 201300Z VRB03KT CAVOK 39/M04 Q1008 NOSIG
Observed
May-20 @ 13:00 UTC
Wind
  • Variable at 3 KTS
Visibility
10,000+ meters
Flight Rules
VFR
Cloud Levels
  • Clear skies
Temperature
39°C / 102°F
Dewpoint
-4°C / 25°F
Humidity
6%
Altimeter
29.76" Hg
Pressure
1007.92 hPa
Previous

4 hours ago

HESN 201200Z 18003KT CAVOK 40/M03 Q1008 NOSIG
Observed
May-20 @ 12:00 UTC
Wind
  • 180° at 3 KTS
Visibility
10,000+ meters
Flight Rules
VFR
Cloud Levels
  • Clear skies
Temperature
40°C / 104°F
Dewpoint
-3°C / 27°F
Humidity
6%
Altimeter
29.76" Hg
Pressure
1007.92 hPa